sensor_id;sensor_type;location;lat;lon;timestamp;P1;durP1;ratioP1;P2;durP2;ratioP2
21012;SDS011;10664;53.582;9.712;2022-07-05T00:00:18;2.58;;;1.88;;
21012;SDS011;10664;53.582;9.712;2022-07-05T00:02:44;2.15;;;1.90;;
21012;SDS011;10664;53.582;9.712;2022-07-05T00:05:10;2.88;;;1.88;;
21012;SDS011;10664;53.582;9.712;2022-07-05T00:07:36;3.47;;;1.85;;
21012;SDS011;10664;53.582;9.712;2022-07-05T00:10:02;1.60;;;1.50;;
21012;SDS011;10664;53.582;9.712;2022-07-05T00:12:30;1.90;;;1.80;;
21012;SDS011;10664;53.582;9.712;2022-07-05T00:14:57;1.90;;;1.80;;
21012;SDS011;10664;53.582;9.712;2022-07-05T00:17:23;2.33;;;1.83;;
21012;SDS011;10664;53.582;9.712;2022-07-05T00:19:49;2.20;;;2.00;;
21012;SDS011;10664;53.582;9.712;2022-07-05T00:22:15;2.42;;;2.03;;
21012;SDS011;10664;53.582;9.712;2022-07-05T00:24:41;2.90;;;2.60;;
21012;SDS011;10664;53.582;9.712;2022-07-05T00:27:07;2.20;;;2.00;;
21012;SDS011;10664;53.582;9.712;2022-07-05T00:29:33;2.17;;;1.98;;
21012;SDS011;10664;53.582;9.712;2022-07-05T00:31:59;2.50;;;2.17;;
21012;SDS011;10664;53.582;9.712;2022-07-05T00:34:25;3.08;;;2.30;;
21012;SDS011;10664;53.582;9.712;2022-07-05T00:36:51;2.25;;;2.05;;
21012;SDS011;10664;53.582;9.712;2022-07-05T00:39:17;2.22;;;2.00;;
21012;SDS011;10664;53.582;9.712;2022-07-05T00:41:43;2.20;;;1.98;;
21012;SDS011;10664;53.582;9.712;2022-07-05T00:44:10;3.03;;;2.08;;
21012;SDS011;10664;53.582;9.712;2022-07-05T00:46:37;2.38;;;2.17;;
21012;SDS011;10664;53.582;9.712;2022-07-05T00:49:03;2.25;;;2.05;;
21012;SDS011;10664;53.582;9.712;2022-07-05T00:51:30;3.58;;;2.20;;
21012;SDS011;10664;53.582;9.712;2022-07-05T00:53:56;2.30;;;2.10;;
21012;SDS011;10664;53.582;9.712;2022-07-05T00:56:25;2.30;;;2.10;;
21012;SDS011;10664;53.582;9.712;2022-07-05T00:58:51;2.30;;;2.10;;
21012;SDS011;10664;53.582;9.712;2022-07-05T01:01:17;3.13;;;2.40;;
21012;SDS011;10664;53.582;9.712;2022-07-05T01:03:44;2.15;;;1.95;;
21012;SDS011;10664;53.582;9.712;2022-07-05T01:06:11;2.63;;;2.10;;
21012;SDS011;10664;53.582;9.712;2022-07-05T01:08:37;3.03;;;2.13;;
21012;SDS011;10664;53.582;9.712;2022-07-05T01:11:04;2.17;;;2.00;;
21012;SDS011;10664;53.582;9.712;2022-07-05T01:13:30;2.13;;;1.95;;
21012;SDS011;10664;53.582;9.712;2022-07-05T01:15:56;2.90;;;2.08;;
21012;SDS011;10664;53.582;9.712;2022-07-05T01:18:22;2.40;;;2.10;;
21012;SDS011;10664;53.582;9.712;2022-07-05T01:20:49;2.78;;;2.28;;
21012;SDS011;10664;53.582;9.712;2022-07-05T01:23:16;2.80;;;2.25;;
21012;SDS011;10664;53.582;9.712;2022-07-05T01:25:42;2.53;;;2.15;;
21012;SDS011;10664;53.582;9.712;2022-07-05T01:28:08;2.42;;;2.22;;
21012;SDS011;10664;53.582;9.712;2022-07-05T01:30:34;2.38;;;2.10;;
21012;SDS011;10664;53.582;9.712;2022-07-05T01:33:01;2.40;;;2.20;;
21012;SDS011;10664;53.582;9.712;2022-07-05T01:35:27;2.97;;;2.50;;
21012;SDS011;10664;53.582;9.712;2022-07-05T01:37:53;2.45;;;2.03;;
21012;SDS011;10664;53.582;9.712;2022-07-05T01:40:19;3.25;;;2.50;;
21012;SDS011;10664;53.582;9.712;2022-07-05T01:42:46;2.92;;;2.50;;
21012;SDS011;10664;53.582;9.712;2022-07-05T01:45:12;2.50;;;2.30;;
21012;SDS011;10664;53.582;9.712;2022-07-05T01:47:58;2.30;;;2.10;;
21012;SDS011;10664;53.582;9.712;2022-07-05T01:50:24;2.10;;;2.00;;
21012;SDS011;10664;53.582;9.712;2022-07-05T01:52:51;2.53;;;2.30;;
21012;SDS011;10664;53.582;9.712;2022-07-05T01:55:17;2.20;;;2.10;;
21012;SDS011;10664;53.582;9.712;2022-07-05T01:57:43;2.72;;;2.10;;
21012;SDS011;10664;53.582;9.712;2022-07-05T02:00:09;2.58;;;2.38;;
21012;SDS011;10664;53.582;9.712;2022-07-05T02:02:39;2.53;;;2.22;;
21012;SDS011;10664;53.582;9.712;2022-07-05T02:05:05;2.88;;;2.60;;
21012;SDS011;10664;53.582;9.712;2022-07-05T02:07:31;2.60;;;2.40;;
21012;SDS011;10664;53.582;9.712;2022-07-05T02:09:57;2.63;;;2.42;;
21012;SDS011;10664;53.582;9.712;2022-07-05T02:12:23;3.15;;;2.55;;
21012;SDS011;10664;53.582;9.712;2022-07-05T02:14:49;3.03;;;2.47;;
21012;SDS011;10664;53.582;9.712;2022-07-05T02:17:14;3.25;;;2.80;;
21012;SDS011;10664;53.582;9.712;2022-07-05T02:19:40;3.10;;;2.80;;
21012;SDS011;10664;53.582;9.712;2022-07-05T02:22:07;3.25;;;2.80;;
21012;SDS011;10664;53.582;9.712;2022-07-05T02:24:33;3.33;;;3.00;;
21012;SDS011;10664;53.582;9.712;2022-07-05T02:26:59;2.90;;;2.70;;
21012;SDS011;10664;53.582;9.712;2022-07-05T02:29:25;3.70;;;2.92;;
21012;SDS011;10664;53.582;9.712;2022-07-05T02:31:51;3.67;;;3.20;;
21012;SDS011;10664;53.582;9.712;2022-07-05T02:34:17;3.03;;;2.78;;
21012;SDS011;10664;53.582;9.712;2022-07-05T02:36:43;3.13;;;2.85;;
21012;SDS011;10664;53.582;9.712;2022-07-05T02:41:37;3.13;;;2.83;;
21012;SDS011;10664;53.582;9.712;2022-07-05T02:44:03;3.13;;;2.58;;
21012;SDS011;10664;53.582;9.712;2022-07-05T02:46:29;3.75;;;3.00;;
21012;SDS011;10664;53.582;9.712;2022-07-05T02:48:55;3.20;;;2.90;;
21012;SDS011;10664;53.582;9.712;2022-07-05T02:51:21;5.68;;;3.28;;
21012;SDS011;10664;53.582;9.712;2022-07-05T02:53:47;3.17;;;2.90;;
21012;SDS011;10664;53.582;9.712;2022-07-05T02:56:13;3.13;;;2.80;;
21012;SDS011;10664;53.582;9.712;2022-07-05T02:58:39;3.20;;;3.00;;
21012;SDS011;10664;53.582;9.712;2022-07-05T03:01:05;3.30;;;3.07;;
21012;SDS011;10664;53.582;9.712;2022-07-05T03:03:31;4.07;;;3.30;;
21012;SDS011;10664;53.582;9.712;2022-07-05T03:05:57;3.23;;;2.93;;
21012;SDS011;10664;53.582;9.712;2022-07-05T03:08:23;4.50;;;3.33;;
21012;SDS011;10664;53.582;9.712;2022-07-05T03:10:49;3.27;;;3.07;;
21012;SDS011;10664;53.582;9.712;2022-07-05T03:13:14;3.40;;;3.10;;
21012;SDS011;10664;53.582;9.712;2022-07-05T03:15:40;3.33;;;3.00;;
21012;SDS011;10664;53.582;9.712;2022-07-05T03:18:07;3.30;;;3.00;;
21012;SDS011;10664;53.582;9.712;2022-07-05T03:20:33;3.43;;;3.13;;
21012;SDS011;10664;53.582;9.712;2022-07-05T03:22:59;3.30;;;3.00;;
21012;SDS011;10664;53.582;9.712;2022-07-05T03:25:25;3.57;;;3.27;;
21012;SDS011;10664;53.582;9.712;2022-07-05T03:27:51;3.10;;;2.90;;
21012;SDS011;10664;53.582;9.712;2022-07-05T03:30:17;3.80;;;3.00;;
21012;SDS011;10664;53.582;9.712;2022-07-05T03:32:43;3.30;;;3.00;;
21012;SDS011;10664;53.582;9.712;2022-07-05T03:35:09;3.63;;;3.33;;
21012;SDS011;10664;53.582;9.712;2022-07-05T03:37:35;3.67;;;3.37;;
21012;SDS011;10664;53.582;9.712;2022-07-05T03:40:01;3.43;;;3.13;;
21012;SDS011;10664;53.582;9.712;2022-07-05T03:42:27;3.30;;;3.00;;
21012;SDS011;10664;53.582;9.712;2022-07-05T03:44:53;3.13;;;2.93;;
21012;SDS011;10664;53.582;9.712;2022-07-05T03:47:19;4.00;;;3.63;;
21012;SDS011;10664;53.582;9.712;2022-07-05T03:49:45;3.47;;;3.20;;
21012;SDS011;10664;53.582;9.712;2022-07-05T03:52:11;3.20;;;3.00;;
21012;SDS011;10664;53.582;9.712;2022-07-05T03:54:37;4.17;;;3.23;;
21012;SDS011;10664;53.582;9.712;2022-07-05T03:57:03;3.90;;;3.60;;
21012;SDS011;10664;53.582;9.712;2022-07-05T03:59:29;3.90;;;3.60;;
21012;SDS011;10664;53.582;9.712;2022-07-05T04:01:55;4.20;;;3.80;;
21012;SDS011;10664;53.582;9.712;2022-07-05T04:04:21;4.40;;;3.83;;
21012;SDS011;10664;53.582;9.712;2022-07-05T04:06:47;4.20;;;3.73;;
21012;SDS011;10664;53.582;9.712;2022-07-05T04:09:13;5.17;;;3.80;;
21012;SDS011;10664;53.582;9.712;2022-07-05T04:11:39;3.53;;;3.23;;
21012;SDS011;10664;53.582;9.712;2022-07-05T04:14:05;4.30;;;3.37;;
21012;SDS011;10664;53.582;9.712;2022-07-05T04:16:34;3.20;;;3.00;;
21012;SDS011;10664;53.582;9.712;2022-07-05T04:18:59;4.27;;;3.40;;
21012;SDS011;10664;53.582;9.712;2022-07-05T04:21:25;3.30;;;3.07;;
21012;SDS011;10664;53.582;9.712;2022-07-05T04:23:51;3.53;;;3.23;;
21012;SDS011;10664;53.582;9.712;2022-07-05T04:26:17;3.10;;;2.80;;
21012;SDS011;10664;53.582;9.712;2022-07-05T04:28:43;3.93;;;3.20;;
21012;SDS011;10664;53.582;9.712;2022-07-05T04:31:09;3.67;;;3.37;;
21012;SDS011;10664;53.582;9.712;2022-07-05T04:33:35;3.40;;;3.10;;
21012;SDS011;10664;53.582;9.712;2022-07-05T04:36:01;3.37;;;3.07;;
21012;SDS011;10664;53.582;9.712;2022-07-05T04:38:27;3.47;;;3.17;;
21012;SDS011;10664;53.582;9.712;2022-07-05T04:40:54;3.50;;;3.20;;
21012;SDS011;10664;53.582;9.712;2022-07-05T04:43:20;3.80;;;2.97;;
21012;SDS011;10664;53.582;9.712;2022-07-05T04:45:46;3.20;;;2.90;;
21012;SDS011;10664;53.582;9.712;2022-07-05T04:48:12;4.03;;;3.00;;
21012;SDS011;10664;53.582;9.712;2022-07-05T04:50:38;3.27;;;2.90;;
21012;SDS011;10664;53.582;9.712;2022-07-05T04:53:04;3.30;;;2.87;;
21012;SDS011;10664;53.582;9.712;2022-07-05T04:55:30;3.90;;;3.00;;
21012;SDS011;10664;53.582;9.712;2022-07-05T04:57:56;2.50;;;2.30;;
21012;SDS011;10664;53.582;9.712;2022-07-05T05:00:22;3.00;;;2.80;;
21012;SDS011;10664;53.582;9.712;2022-07-05T05:02:47;3.17;;;2.70;;
21012;SDS011;10664;53.582;9.712;2022-07-05T05:05:13;3.07;;;2.77;;
21012;SDS011;10664;53.582;9.712;2022-07-05T05:07:43;2.60;;;2.20;;
21012;SDS011;10664;53.582;9.712;2022-07-05T05:10:09;3.10;;;2.57;;
21012;SDS011;10664;53.582;9.712;2022-07-05T05:12:35;2.30;;;2.10;;
21012;SDS011;10664;53.582;9.712;2022-07-05T05:15:01;2.58;;;2.38;;
21012;SDS011;10664;53.582;9.712;2022-07-05T05:17:34;2.30;;;2.10;;
21012;SDS011;10664;53.582;9.712;2022-07-05T05:20:00;2.45;;;2.10;;
21012;SDS011;10664;53.582;9.712;2022-07-05T05:22:26;2.63;;;2.42;;
21012;SDS011;10664;53.582;9.712;2022-07-05T05:24:52;1.90;;;1.80;;
21012;SDS011;10664;53.582;9.712;2022-07-05T05:27:18;2.10;;;1.98;;
21012;SDS011;10664;53.582;9.712;2022-07-05T05:29:44;2.17;;;2.08;;
21012;SDS011;10664;53.582;9.712;2022-07-05T05:32:10;2.03;;;1.92;;
21012;SDS011;10664;53.582;9.712;2022-07-05T05:34:36;2.60;;;2.00;;
21012;SDS011;10664;53.582;9.712;2022-07-05T05:37:02;2.88;;;2.03;;
21012;SDS011;10664;53.582;9.712;2022-07-05T05:39:28;1.70;;;1.55;;
21012;SDS011;10664;53.582;9.712;2022-07-05T05:41:54;2.28;;;1.85;;
21012;SDS011;10664;53.582;9.712;2022-07-05T05:44:20;1.80;;;1.70;;
21012;SDS011;10664;53.582;9.712;2022-07-05T05:46:46;2.15;;;1.92;;
21012;SDS011;10664;53.582;9.712;2022-07-05T05:49:12;1.83;;;1.63;;
21012;SDS011;10664;53.582;9.712;2022-07-05T05:51:38;2.67;;;1.83;;
21012;SDS011;10664;53.582;9.712;2022-07-05T05:54:04;2.25;;;2.00;;
21012;SDS011;10664;53.582;9.712;2022-07-05T05:56:30;2.05;;;1.85;;
21012;SDS011;10664;53.582;9.712;2022-07-05T05:58:56;1.90;;;1.80;;
21012;SDS011;10664;53.582;9.712;2022-07-05T06:01:22;2.05;;;1.70;;
21012;SDS011;10664;53.582;9.712;2022-07-05T06:03:48;3.03;;;2.13;;
21012;SDS011;10664;53.582;9.712;2022-07-05T06:06:14;2.28;;;1.83;;
21012;SDS011;10664;53.582;9.712;2022-07-05T06:08:40;1.95;;;1.58;;
21012;SDS011;10664;53.582;9.712;2022-07-05T06:11:06;2.88;;;2.00;;
21012;SDS011;10664;53.582;9.712;2022-07-05T06:13:32;1.88;;;1.70;;
21012;SDS011;10664;53.582;9.712;2022-07-05T06:15:57;4.72;;;2.13;;
21012;SDS011;10664;53.582;9.712;2022-07-05T06:18:24;2.33;;;1.88;;
21012;SDS011;10664;53.582;9.712;2022-07-05T06:20:49;1.90;;;1.58;;
21012;SDS011;10664;53.582;9.712;2022-07-05T06:23:15;3.30;;;1.73;;
21012;SDS011;10664;53.582;9.712;2022-07-05T06:25:42;2.03;;;1.80;;
21012;SDS011;10664;53.582;9.712;2022-07-05T06:28:08;2.00;;;1.77;;
21012;SDS011;10664;53.582;9.712;2022-07-05T06:30:35;1.95;;;1.85;;
21012;SDS011;10664;53.582;9.712;2022-07-05T06:33:01;1.70;;;1.60;;
21012;SDS011;10664;53.582;9.712;2022-07-05T06:35:27;2.42;;;1.75;;
21012;SDS011;10664;53.582;9.712;2022-07-05T06:37:54;1.77;;;1.67;;
21012;SDS011;10664;53.582;9.712;2022-07-05T06:40:25;1.60;;;1.50;;
21012;SDS011;10664;53.582;9.712;2022-07-05T06:42:51;2.50;;;1.88;;
21012;SDS011;10664;53.582;9.712;2022-07-05T06:45:18;2.58;;;1.70;;
21012;SDS011;10664;53.582;9.712;2022-07-05T06:47:44;2.38;;;1.92;;
21012;SDS011;10664;53.582;9.712;2022-07-05T06:50:11;2.50;;;1.80;;
21012;SDS011;10664;53.582;9.712;2022-07-05T06:52:37;2.58;;;1.92;;
21012;SDS011;10664;53.582;9.712;2022-07-05T06:55:04;1.88;;;1.60;;
21012;SDS011;10664;53.582;9.712;2022-07-05T06:57:30;1.73;;;1.63;;
21012;SDS011;10664;53.582;9.712;2022-07-05T06:59:56;3.17;;;1.60;;
21012;SDS011;10664;53.582;9.712;2022-07-05T07:02:22;1.70;;;1.60;;
21012;SDS011;10664;53.582;9.712;2022-07-05T07:04:48;2.03;;;1.85;;
21012;SDS011;10664;53.582;9.712;2022-07-05T07:07:15;1.77;;;1.67;;
21012;SDS011;10664;53.582;9.712;2022-07-05T07:09:59;1.83;;;1.48;;
21012;SDS011;10664;53.582;9.712;2022-07-05T07:12:26;1.45;;;1.35;;
21012;SDS011;10664;53.582;9.712;2022-07-05T07:14:52;2.47;;;1.60;;
21012;SDS011;10664;53.582;9.712;2022-07-05T07:17:18;1.70;;;1.58;;
21012;SDS011;10664;53.582;9.712;2022-07-05T07:19:45;2.65;;;1.40;;
21012;SDS011;10664;53.582;9.712;2022-07-05T07:22:11;2.38;;;1.55;;
21012;SDS011;10664;53.582;9.712;2022-07-05T07:24:36;1.85;;;1.73;;
21012;SDS011;10664;53.582;9.712;2022-07-05T07:27:03;1.75;;;1.65;;
21012;SDS011;10664;53.582;9.712;2022-07-05T07:29:30;1.63;;;1.40;;
21012;SDS011;10664;53.582;9.712;2022-07-05T07:31:56;1.63;;;1.50;;
21012;SDS011;10664;53.582;9.712;2022-07-05T07:34:23;2.83;;;1.42;;
21012;SDS011;10664;53.582;9.712;2022-07-05T07:36:49;2.28;;;1.60;;
21012;SDS011;10664;53.582;9.712;2022-07-05T07:39:15;1.52;;;1.30;;
21012;SDS011;10664;53.582;9.712;2022-07-05T07:41:41;1.40;;;1.30;;
21012;SDS011;10664;53.582;9.712;2022-07-05T07:44:07;2.60;;;1.40;;
21012;SDS011;10664;53.582;9.712;2022-07-05T07:46:33;1.50;;;1.40;;
21012;SDS011;10664;53.582;9.712;2022-07-05T07:48:59;1.50;;;1.40;;
21012;SDS011;10664;53.582;9.712;2022-07-05T07:51:25;1.52;;;1.20;;
21012;SDS011;10664;53.582;9.712;2022-07-05T07:53:52;1.60;;;1.48;;
21012;SDS011;10664;53.582;9.712;2022-07-05T07:56:18;1.42;;;1.33;;
21012;SDS011;10664;53.582;9.712;2022-07-05T07:58:44;1.58;;;1.40;;
21012;SDS011;10664;53.582;9.712;2022-07-05T08:01:10;1.73;;;1.50;;
21012;SDS011;10664;53.582;9.712;2022-07-05T08:03:36;1.02;;;1.02;;
21012;SDS011;10664;53.582;9.712;2022-07-05T08:06:03;1.55;;;1.30;;
21012;SDS011;10664;53.582;9.712;2022-07-05T08:08:29;1.63;;;1.52;;
21012;SDS011;10664;53.582;9.712;2022-07-05T08:10:55;1.40;;;1.30;;
21012;SDS011;10664;53.582;9.712;2022-07-05T08:13:21;1.50;;;1.38;;
21012;SDS011;10664;53.582;9.712;2022-07-05T08:15:47;2.17;;;1.30;;
21012;SDS011;10664;53.582;9.712;2022-07-05T08:18:13;1.83;;;1.10;;
21012;SDS011;10664;53.582;9.712;2022-07-05T08:20:57;1.77;;;1.27;;
21012;SDS011;10664;53.582;9.712;2022-07-05T08:23:42;1.30;;;1.20;;
21012;SDS011;10664;53.582;9.712;2022-07-05T08:26:08;1.10;;;1.10;;
21012;SDS011;10664;53.582;9.712;2022-07-05T08:28:34;1.17;;;1.08;;
21012;SDS011;10664;53.582;9.712;2022-07-05T08:30:59;1.00;;;1.00;;
21012;SDS011;10664;53.582;9.712;2022-07-05T08:33:25;1.23;;;0.82;;
21012;SDS011;10664;53.582;9.712;2022-07-05T08:35:52;0.90;;;0.90;;
21012;SDS011;10664;53.582;9.712;2022-07-05T08:38:18;1.23;;;1.13;;
21012;SDS011;10664;53.582;9.712;2022-07-05T08:40:45;1.10;;;0.90;;
21012;SDS011;10664;53.582;9.712;2022-07-05T08:43:11;1.02;;;1.00;;
21012;SDS011;10664;53.582;9.712;2022-07-05T08:45:38;0.98;;;0.88;;
21012;SDS011;10664;53.582;9.712;2022-07-05T08:48:05;1.00;;;0.93;;
21012;SDS011;10664;53.582;9.712;2022-07-05T08:50:32;0.80;;;0.80;;
21012;SDS011;10664;53.582;9.712;2022-07-05T08:52:59;0.80;;;0.80;;
21012;SDS011;10664;53.582;9.712;2022-07-05T08:55:26;0.70;;;0.70;;
21012;SDS011;10664;53.582;9.712;2022-07-05T08:57:52;0.60;;;0.60;;
21012;SDS011;10664;53.582;9.712;2022-07-05T09:00:18;0.85;;;0.85;;
21012;SDS011;10664;53.582;9.712;2022-07-05T09:02:44;0.80;;;0.80;;
21012;SDS011;10664;53.582;9.712;2022-07-05T09:05:12;0.75;;;0.75;;
21012;SDS011;10664;53.582;9.712;2022-07-05T09:07:40;0.85;;;0.80;;
21012;SDS011;10664;53.582;9.712;2022-07-05T09:10:10;0.80;;;0.80;;
21012;SDS011;10664;53.582;9.712;2022-07-05T09:12:37;1.00;;;0.95;;
21012;SDS011;10664;53.582;9.712;2022-07-05T09:15:03;0.88;;;0.88;;
21012;SDS011;10664;53.582;9.712;2022-07-05T09:17:30;1.10;;;1.00;;
21012;SDS011;10664;53.582;9.712;2022-07-05T09:20:06;0.90;;;0.90;;
21012;SDS011;10664;53.582;9.712;2022-07-05T09:22:43;1.15;;;0.80;;
21012;SDS011;10664;53.582;9.712;2022-07-05T09:25:12;0.93;;;0.93;;
21012;SDS011;10664;53.582;9.712;2022-07-05T09:27:46;0.90;;;0.90;;
21012;SDS011;10664;53.582;9.712;2022-07-05T09:30:13;0.80;;;0.80;;
21012;SDS011;10664;53.582;9.712;2022-07-05T09:32:53;1.50;;;1.00;;
21012;SDS011;10664;53.582;9.712;2022-07-05T09:35:26;0.80;;;0.80;;
21012;SDS011;10664;53.582;9.712;2022-07-05T09:37:53;0.80;;;0.80;;
21012;SDS011;10664;53.582;9.712;2022-07-05T09:40:19;0.70;;;0.70;;
21012;SDS011;10664;53.582;9.712;2022-07-05T09:42:45;1.33;;;1.00;;
21012;SDS011;10664;53.582;9.712;2022-07-05T09:45:11;0.88;;;0.70;;
21012;SDS011;10664;53.582;9.712;2022-07-05T09:47:38;0.90;;;0.80;;
21012;SDS011;10664;53.582;9.712;2022-07-05T09:50:04;1.40;;;0.90;;
21012;SDS011;10664;53.582;9.712;2022-07-05T09:52:33;0.75;;;0.75;;
21012;SDS011;10664;53.582;9.712;2022-07-05T09:57:31;0.70;;;0.70;;
21012;SDS011;10664;53.582;9.712;2022-07-05T09:59:58;0.80;;;0.80;;
21012;SDS011;10664;53.582;9.712;2022-07-05T10:02:46;0.73;;;0.60;;
21012;SDS011;10664;53.582;9.712;2022-07-05T10:05:16;0.88;;;0.68;;
21012;SDS011;10664;53.582;9.712;2022-07-05T10:07:43;0.75;;;0.75;;
21012;SDS011;10664;53.582;9.712;2022-07-05T10:10:11;1.63;;;0.98;;
21012;SDS011;10664;53.582;9.712;2022-07-05T10:12:38;2.15;;;1.48;;
21012;SDS011;10664;53.582;9.712;2022-07-05T10:15:05;2.33;;;1.70;;
21012;SDS011;10664;53.582;9.712;2022-07-05T10:17:34;2.13;;;1.58;;
21012;SDS011;10664;53.582;9.712;2022-07-05T10:20:01;1.92;;;1.13;;
21012;SDS011;10664;53.582;9.712;2022-07-05T10:22:28;0.90;;;0.90;;
21012;SDS011;10664;53.582;9.712;2022-07-05T10:24:55;1.45;;;0.80;;
21012;SDS011;10664;53.582;9.712;2022-07-05T10:27:21;0.95;;;0.77;;
21012;SDS011;10664;53.582;9.712;2022-07-05T10:29:48;0.70;;;0.70;;
21012;SDS011;10664;53.582;9.712;2022-07-05T10:32:15;0.73;;;0.70;;
21012;SDS011;10664;53.582;9.712;2022-07-05T10:34:42;0.63;;;0.63;;
21012;SDS011;10664;53.582;9.712;2022-07-05T10:37:11;1.40;;;0.70;;
21012;SDS011;10664;53.582;9.712;2022-07-05T10:39:38;0.60;;;0.50;;
21012;SDS011;10664;53.582;9.712;2022-07-05T10:42:05;0.65;;;0.65;;
21012;SDS011;10664;53.582;9.712;2022-07-05T10:44:32;0.75;;;0.50;;
21012;SDS011;10664;53.582;9.712;2022-07-05T10:47:08;0.70;;;0.63;;
21012;SDS011;10664;53.582;9.712;2022-07-05T10:49:37;0.60;;;0.60;;
21012;SDS011;10664;53.582;9.712;2022-07-05T10:52:03;0.80;;;0.65;;
21012;SDS011;10664;53.582;9.712;2022-07-05T10:54:29;0.95;;;0.60;;
21012;SDS011;10664;53.582;9.712;2022-07-05T11:02:28;0.63;;;0.63;;
21012;SDS011;10664;53.582;9.712;2022-07-05T11:04:56;0.50;;;0.50;;
21012;SDS011;10664;53.582;9.712;2022-07-05T11:10:07;0.73;;;0.50;;
21012;SDS011;10664;53.582;9.712;2022-07-05T11:12:36;0.68;;;0.68;;
21012;SDS011;10664;53.582;9.712;2022-07-05T11:15:05;0.60;;;0.60;;
21012;SDS011;10664;53.582;9.712;2022-07-05T11:17:36;1.35;;;0.70;;
21012;SDS011;10664;53.582;9.712;2022-07-05T11:20:12;0.88;;;0.60;;
21012;SDS011;10664;53.582;9.712;2022-07-05T11:22:40;0.77;;;0.77;;
21012;SDS011;10664;53.582;9.712;2022-07-05T11:25:07;0.90;;;0.80;;
21012;SDS011;10664;53.582;9.712;2022-07-05T11:27:35;0.70;;;0.70;;
21012;SDS011;10664;53.582;9.712;2022-07-05T11:30:02;0.70;;;0.70;;
21012;SDS011;10664;53.582;9.712;2022-07-05T11:34:55;1.02;;;0.73;;
21012;SDS011;10664;53.582;9.712;2022-07-05T11:37:24;1.20;;;0.77;;
21012;SDS011;10664;53.582;9.712;2022-07-05T11:40:35;1.00;;;0.75;;
21012;SDS011;10664;53.582;9.712;2022-07-05T11:42:47;1.60;;;0.70;;
21012;SDS011;10664;53.582;9.712;2022-07-05T11:45:13;0.80;;;0.70;;
21012;SDS011;10664;53.582;9.712;2022-07-05T11:47:40;0.63;;;0.60;;
21012;SDS011;10664;53.582;9.712;2022-07-05T11:50:06;0.95;;;0.63;;
21012;SDS011;10664;53.582;9.712;2022-07-05T11:52:33;0.80;;;0.80;;
21012;SDS011;10664;53.582;9.712;2022-07-05T11:55:00;0.80;;;0.80;;
21012;SDS011;10664;53.582;9.712;2022-07-05T11:57:26;0.90;;;0.80;;
21012;SDS011;10664;53.582;9.712;2022-07-05T11:59:53;0.85;;;0.70;;
21012;SDS011;10664;53.582;9.712;2022-07-05T12:02:19;0.60;;;0.60;;
21012;SDS011;10664;53.582;9.712;2022-07-05T12:04:49;0.75;;;0.75;;
21012;SDS011;10664;53.582;9.712;2022-07-05T12:07:25;0.80;;;0.70;;
21012;SDS011;10664;53.582;9.712;2022-07-05T12:09:51;0.70;;;0.70;;
21012;SDS011;10664;53.582;9.712;2022-07-05T12:12:36;0.68;;;0.68;;
21012;SDS011;10664;53.582;9.712;2022-07-05T12:15:08;0.70;;;0.70;;
21012;SDS011;10664;53.582;9.712;2022-07-05T12:17:34;0.68;;;0.68;;
21012;SDS011;10664;53.582;9.712;2022-07-05T12:20:01;0.60;;;0.60;;
21012;SDS011;10664;53.582;9.712;2022-07-05T12:22:28;1.05;;;0.82;;
21012;SDS011;10664;53.582;9.712;2022-07-05T12:24:54;0.70;;;0.68;;
21012;SDS011;10664;53.582;9.712;2022-07-05T12:27:20;0.77;;;0.70;;
21012;SDS011;10664;53.582;9.712;2022-07-05T12:29:46;0.80;;;0.70;;
21012;SDS011;10664;53.582;9.712;2022-07-05T12:32:12;1.00;;;0.80;;
21012;SDS011;10664;53.582;9.712;2022-07-05T12:34:38;0.70;;;0.70;;
21012;SDS011;10664;53.582;9.712;2022-07-05T12:37:04;1.42;;;0.77;;
21012;SDS011;10664;53.582;9.712;2022-07-05T12:39:30;0.60;;;0.60;;
21012;SDS011;10664;53.582;9.712;2022-07-05T12:41:56;0.95;;;0.60;;
21012;SDS011;10664;53.582;9.712;2022-07-05T12:44:22;0.73;;;0.70;;
21012;SDS011;10664;53.582;9.712;2022-07-05T12:46:48;0.88;;;0.80;;
21012;SDS011;10664;53.582;9.712;2022-07-05T12:49:15;1.20;;;0.93;;
21012;SDS011;10664;53.582;9.712;2022-07-05T12:51:42;0.68;;;0.68;;
21012;SDS011;10664;53.582;9.712;2022-07-05T12:54:17;0.82;;;0.60;;
21012;SDS011;10664;53.582;9.712;2022-07-05T12:57:02;1.33;;;0.55;;
21012;SDS011;10664;53.582;9.712;2022-07-05T13:00:00;1.05;;;0.68;;
21012;SDS011;10664;53.582;9.712;2022-07-05T13:02:37;0.77;;;0.60;;
21012;SDS011;10664;53.582;9.712;2022-07-05T13:05:07;0.70;;;0.50;;
21012;SDS011;10664;53.582;9.712;2022-07-05T13:07:33;0.77;;;0.77;;
21012;SDS011;10664;53.582;9.712;2022-07-05T13:10:19;0.90;;;0.70;;
21012;SDS011;10664;53.582;9.712;2022-07-05T13:12:45;0.98;;;0.88;;
21012;SDS011;10664;53.582;9.712;2022-07-05T13:15:11;0.77;;;0.70;;
21012;SDS011;10664;53.582;9.712;2022-07-05T13:17:37;0.70;;;0.70;;
21012;SDS011;10664;53.582;9.712;2022-07-05T13:20:03;1.20;;;1.00;;
21012;SDS011;10664;53.582;9.712;2022-07-05T13:22:29;1.85;;;0.93;;
21012;SDS011;10664;53.582;9.712;2022-07-05T13:24:55;0.98;;;0.75;;
21012;SDS011;10664;53.582;9.712;2022-07-05T13:27:21;1.02;;;0.80;;
21012;SDS011;10664;53.582;9.712;2022-07-05T13:29:47;1.15;;;1.00;;
21012;SDS011;10664;53.582;9.712;2022-07-05T13:32:13;1.92;;;0.90;;
21012;SDS011;10664;53.582;9.712;2022-07-05T13:34:44;1.85;;;1.00;;
21012;SDS011;10664;53.582;9.712;2022-07-05T13:37:11;1.20;;;0.90;;
21012;SDS011;10664;53.582;9.712;2022-07-05T13:39:37;1.00;;;0.90;;
21012;SDS011;10664;53.582;9.712;2022-07-05T13:42:05;1.15;;;0.90;;
21012;SDS011;10664;53.582;9.712;2022-07-05T13:44:31;2.17;;;0.85;;
21012;SDS011;10664;53.582;9.712;2022-07-05T13:46:57;1.20;;;0.93;;
21012;SDS011;10664;53.582;9.712;2022-07-05T13:49:23;0.93;;;0.80;;
21012;SDS011;10664;53.582;9.712;2022-07-05T13:51:49;1.45;;;0.88;;
21012;SDS011;10664;53.582;9.712;2022-07-05T13:54:15;1.15;;;0.90;;
21012;SDS011;10664;53.582;9.712;2022-07-05T13:56:41;1.00;;;0.80;;
21012;SDS011;10664;53.582;9.712;2022-07-05T13:59:07;1.00;;;0.80;;
21012;SDS011;10664;53.582;9.712;2022-07-05T14:01:33;0.80;;;0.80;;
21012;SDS011;10664;53.582;9.712;2022-07-05T14:04:00;1.40;;;1.23;;
21012;SDS011;10664;53.582;9.712;2022-07-05T14:06:27;1.58;;;0.90;;
21012;SDS011;10664;53.582;9.712;2022-07-05T14:08:54;1.85;;;0.85;;
21012;SDS011;10664;53.582;9.712;2022-07-05T14:11:20;1.60;;;0.80;;
21012;SDS011;10664;53.582;9.712;2022-07-05T14:13:46;1.58;;;0.80;;
21012;SDS011;10664;53.582;9.712;2022-07-05T14:16:12;0.90;;;0.90;;
21012;SDS011;10664;53.582;9.712;2022-07-05T14:18:38;0.88;;;0.88;;
21012;SDS011;10664;53.582;9.712;2022-07-05T14:21:04;1.35;;;0.90;;
21012;SDS011;10664;53.582;9.712;2022-07-05T14:23:31;1.92;;;1.00;;
21012;SDS011;10664;53.582;9.712;2022-07-05T14:25:59;0.90;;;0.90;;
21012;SDS011;10664;53.582;9.712;2022-07-05T14:28:27;1.55;;;0.82;;
21012;SDS011;10664;53.582;9.712;2022-07-05T14:30:53;0.82;;;0.82;;
21012;SDS011;10664;53.582;9.712;2022-07-05T14:33:19;1.48;;;0.90;;
21012;SDS011;10664;53.582;9.712;2022-07-05T14:35:46;1.45;;;1.00;;
21012;SDS011;10664;53.582;9.712;2022-07-05T14:38:12;0.73;;;0.73;;
21012;SDS011;10664;53.582;9.712;2022-07-05T14:40:38;1.15;;;0.80;;
21012;SDS011;10664;53.582;9.712;2022-07-05T14:43:04;0.93;;;0.85;;
21012;SDS011;10664;53.582;9.712;2022-07-05T14:45:30;0.82;;;0.75;;
21012;SDS011;10664;53.582;9.712;2022-07-05T14:47:56;1.10;;;1.00;;
21012;SDS011;10664;53.582;9.712;2022-07-05T14:50:22;1.02;;;0.90;;
21012;SDS011;10664;53.582;9.712;2022-07-05T14:52:48;1.35;;;0.90;;
21012;SDS011;10664;53.582;9.712;2022-07-05T14:55:15;0.80;;;0.73;;
21012;SDS011;10664;53.582;9.712;2022-07-05T14:57:41;0.88;;;0.80;;
21012;SDS011;10664;53.582;9.712;2022-07-05T15:00:10;1.27;;;0.73;;
21012;SDS011;10664;53.582;9.712;2022-07-05T15:02:36;1.08;;;0.95;;